sensor_id;sensor_type;location;lat;lon;timestamp;pressure;altitude;pressure_sealevel;temperature;humidity
48352;BME280;34163;49.314;6.752;2023-09-19T07:48:28;99598.81;;;8.11;100.00
48352;BME280;34163;49.314;6.752;2023-09-19T07:50:55;99602.41;;;8.09;100.00
48352;BME280;34163;49.314;6.752;2023-09-19T07:53:20;99599.63;;;8.13;100.00
48352;BME280;34163;49.314;6.752;2023-09-19T07:55:47;99595.16;;;8.15;100.00
48352;BME280;34163;49.314;6.752;2023-09-19T07:58:13;99598.59;;;8.17;100.00
48352;BME280;34163;49.314;6.752;2023-09-19T08:00:40;99600.34;;;8.18;100.00
48352;BME280;34163;49.314;6.752;2023-09-19T08:03:05;99602.78;;;8.23;100.00
48352;BME280;34163;49.314;6.752;2023-09-19T08:05:32;99599.22;;;8.24;100.00
48352;BME280;34163;49.314;6.752;2023-09-19T08:07:58;99602.66;;;8.26;100.00
48352;BME280;34163;49.314;6.752;2023-09-19T08:10:24;99607.53;;;14.10;100.00
48352;BME280;34163;49.314;6.752;2023-09-19T08:12:52;99589.66;;;14.41;100.00
48352;BME280;34163;49.314;6.752;2023-09-19T08:15:23;99586.84;;;9.19;100.00
48352;BME280;34163;49.314;6.752;2023-09-19T08:17:48;99598.38;;;7.98;100.00
48352;BME280;34163;49.314;6.752;2023-09-19T08:20:14;99608.88;;;7.48;100.00
48352;BME280;34163;49.314;6.752;2023-09-19T08:22:52;99607.94;;;7.22;100.00
48352;BME280;34163;49.314;6.752;2023-09-19T08:25:19;99610.56;;;6.96;100.00
48352;BME280;34163;49.314;6.752;2023-09-19T08:27:45;99608.34;;;6.82;100.00
48352;BME280;34163;49.314;6.752;2023-09-19T08:30:13;99615.63;;;6.73;100.00
48352;BME280;34163;49.314;6.752;2023-09-19T08:32:39;99617.09;;;6.52;100.00
48352;BME280;34163;49.314;6.752;2023-09-19T08:35:07;99611.97;;;6.48;100.00
48352;BME280;34163;49.314;6.752;2023-09-19T08:37:34;99606.94;;;6.40;100.00
48352;BME280;34163;49.314;6.752;2023-09-19T08:39:59;99608.97;;;6.30;100.00
48352;BME280;34163;49.314;6.752;2023-09-19T08:42:24;99615.38;;;6.20;100.00
48352;BME280;34163;49.314;6.752;2023-09-19T08:44:50;99619.00;;;6.16;100.00
48352;BME280;34163;49.314;6.752;2023-09-19T08:47:16;99616.59;;;6.08;100.00
48352;BME280;34163;49.314;6.752;2023-09-19T08:52:22;99615.91;;;6.02;100.00
48352;BME280;34163;49.314;6.752;2023-09-19T08:54:52;99618.47;;;6.03;100.00
48352;BME280;34163;49.314;6.752;2023-09-19T08:57:18;99626.50;;;5.98;100.00
48352;BME280;34163;49.314;6.752;2023-09-19T08:59:47;99629.38;;;5.88;100.00
48352;BME280;34163;49.314;6.752;2023-09-19T09:02:12;99623.03;;;5.95;100.00
48352;BME280;34163;49.314;6.752;2023-09-19T09:04:42;99625.97;;;5.84;100.00
48352;BME280;34163;49.314;6.752;2023-09-19T09:07:11;99621.44;;;5.89;100.00
48352;BME280;34163;49.314;6.752;2023-09-19T09:09:38;99623.41;;;5.81;100.00
48352;BME280;34163;49.314;6.752;2023-09-19T09:12:16;99613.94;;;5.74;100.00
48352;BME280;34163;49.314;6.752;2023-09-19T09:14:45;99618.22;;;5.78;100.00
48352;BME280;34163;49.314;6.752;2023-09-19T09:17:13;99625.22;;;5.77;100.00
48352;BME280;34163;49.314;6.752;2023-09-19T09:19:39;99621.09;;;5.69;100.00
48352;BME280;34163;49.314;6.752;2023-09-19T09:22:08;99622.88;;;5.68;100.00
48352;BME280;34163;49.314;6.752;2023-09-19T09:24:33;99621.94;;;5.69;100.00
48352;BME280;34163;49.314;6.752;2023-09-19T09:27:02;99629.13;;;5.62;100.00
48352;BME280;34163;49.314;6.752;2023-09-19T09:29:51;99626.38;;;5.67;100.00
48352;BME280;34163;49.314;6.752;2023-09-19T09:32:25;99625.59;;;5.63;100.00
48352;BME280;34163;49.314;6.752;2023-09-19T09:34:55;99629.28;;;5.56;100.00
48352;BME280;34163;49.314;6.752;2023-09-19T09:37:20;99628.47;;;5.54;100.00
48352;BME280;34163;49.314;6.752;2023-09-19T09:39:53;99625.97;;;5.48;100.00
48352;BME280;34163;49.314;6.752;2023-09-19T09:42:31;99628.25;;;5.63;100.00
48352;BME280;34163;49.314;6.752;2023-09-19T09:47:45;99630.03;;;6.60;100.00
48352;BME280;34163;49.314;6.752;2023-09-19T09:50:32;99636.28;;;6.86;100.00
48352;BME280;34163;49.314;6.752;2023-09-19T09:53:25;99639.63;;;6.93;100.00
48352;BME280;34163;49.314;6.752;2023-09-19T09:55:57;99639.25;;;7.05;100.00
48352;BME280;34163;49.314;6.752;2023-09-19T09:58:22;99635.47;;;7.14;100.00
48352;BME280;34163;49.314;6.752;2023-09-19T10:00:54;99643.00;;;7.26;100.00
48352;BME280;34163;49.314;6.752;2023-09-19T10:03:24;99638.63;;;7.25;100.00
48352;BME280;34163;49.314;6.752;2023-09-19T10:05:56;99644.72;;;7.27;100.00
48352;BME280;34163;49.314;6.752;2023-09-19T10:08:23;99648.06;;;7.32;100.00
48352;BME280;34163;49.314;6.752;2023-09-19T10:10:48;99652.22;;;7.39;100.00
48352;BME280;34163;49.314;6.752;2023-09-19T10:13:28;99641.50;;;7.45;100.00
48352;BME280;34163;49.314;6.752;2023-09-19T10:15:56;99632.66;;;7.46;100.00
48352;BME280;34163;49.314;6.752;2023-09-19T10:18:24;99634.38;;;7.48;100.00
48352;BME280;34163;49.314;6.752;2023-09-19T10:20:50;99630.75;;;7.52;100.00
48352;BME280;34163;49.314;6.752;2023-09-19T10:23:17;99632.47;;;7.53;100.00
48352;BME280;34163;49.314;6.752;2023-09-19T10:25:47;99628.81;;;7.57;100.00
48352;BME280;34163;49.314;6.752;2023-09-19T10:28:14;99634.19;;;7.54;100.00
48352;BME280;34163;49.314;6.752;2023-09-19T10:30:46;99635.94;;;7.55;100.00
48352;BME280;34163;49.314;6.752;2023-09-19T10:33:12;99627.00;;;7.59;100.00
48352;BME280;34163;49.314;6.752;2023-09-19T10:35:39;99624.25;;;7.62;100.00
48352;BME280;34163;49.314;6.752;2023-09-19T10:38:09;99624.03;;;7.68;100.00
48352;BME280;34163;49.314;6.752;2023-09-19T10:40:35;99623.16;;;7.69;100.00
48352;BME280;34163;49.314;6.752;2023-09-19T10:43:02;99619.56;;;7.70;100.00
48352;BME280;34163;49.314;6.752;2023-09-19T10:45:30;99624.75;;;7.73;100.00
48352;BME280;34163;49.314;6.752;2023-09-19T10:47:56;99626.47;;;7.74;100.00
48352;BME280;34163;49.314;6.752;2023-09-19T10:50:22;99615.88;;;7.76;100.00
48352;BME280;34163;49.314;6.752;2023-09-19T10:52:48;99615.88;;;7.76;100.00
48352;BME280;34163;49.314;6.752;2023-09-19T10:55:23;99618.41;;;7.79;100.00
48352;BME280;34163;49.314;6.752;2023-09-19T10:57:50;99603.44;;;7.79;100.00
48352;BME280;34163;49.314;6.752;2023-09-19T11:00:15;99614.00;;;7.79;100.00
48352;BME280;34163;49.314;6.752;2023-09-19T11:05:36;99606.88;;;7.81;100.00
48352;BME280;34163;49.314;6.752;2023-09-19T11:08:08;99606.69;;;7.88;100.00
48352;BME280;34163;49.314;6.752;2023-09-19T11:10:47;99588.22;;;7.88;100.00
48352;BME280;34163;49.314;6.752;2023-09-19T11:13:26;99594.31;;;7.90;100.00
48352;BME280;34163;49.314;6.752;2023-09-19T11:21:38;99567.75;;;7.94;100.00
48352;BME280;34163;49.314;6.752;2023-09-19T11:26:40;99568.63;;;7.95;100.00
48352;BME280;34163;49.314;6.752;2023-09-19T11:29:27;99557.13;;;7.96;100.00
48352;BME280;34163;49.314;6.752;2023-09-19T11:31:53;99565.88;;;7.98;100.00
48352;BME280;34163;49.314;6.752;2023-09-19T11:37:00;99557.81;;;8.03;100.00
48352;BME280;34163;49.314;6.752;2023-09-19T11:39:28;99549.00;;;8.02;100.00
48352;BME280;34163;49.314;6.752;2023-09-19T11:41:54;99559.50;;;8.04;100.00
48352;BME280;34163;49.314;6.752;2023-09-19T11:44:31;99554.13;;;8.07;100.00
48352;BME280;34163;49.314;6.752;2023-09-19T11:46:59;99560.91;;;8.14;100.00
48352;BME280;34163;49.314;6.752;2023-09-19T11:49:28;99566.19;;;8.14;100.00
48352;BME280;34163;49.314;6.752;2023-09-19T11:51:55;99559.34;;;8.08;100.00
48352;BME280;34163;49.314;6.752;2023-09-19T11:54:20;99556.47;;;8.14;100.00
48352;BME280;34163;49.314;6.752;2023-09-19T11:56:54;99559.91;;;8.16;100.00
48352;BME280;34163;49.314;6.752;2023-09-19T11:59:20;99545.03;;;8.15;100.00
48352;BME280;34163;49.314;6.752;2023-09-19T12:01:51;99544.78;;;8.22;100.00
48352;BME280;34163;49.314;6.752;2023-09-19T12:04:22;99546.56;;;8.21;100.00
48352;BME280;34163;49.314;6.752;2023-09-19T12:06:58;99536.00;;;8.21;100.00
48352;BME280;34163;49.314;6.752;2023-09-19T12:09:24;99528.88;;;8.23;100.00
48352;BME280;34163;49.314;6.752;2023-09-19T12:11:50;99527.06;;;8.25;100.00
48352;BME280;34163;49.314;6.752;2023-09-19T12:14:22;99521.72;;;8.27;100.00
48352;BME280;34163;49.314;6.752;2023-09-19T12:16:56;99531.56;;;8.22;100.00
48352;BME280;34163;49.314;6.752;2023-09-19T12:19:22;99525.28;;;8.26;100.00
48352;BME280;34163;49.314;6.752;2023-09-19T12:21:58;99533.25;;;8.24;100.00
48352;BME280;34163;49.314;6.752;2023-09-19T12:24:25;99521.91;;;8.22;100.00
48352;BME280;34163;49.314;6.752;2023-09-19T12:26:51;99526.13;;;8.26;100.00
48352;BME280;34163;49.314;6.752;2023-09-19T12:29:21;99515.50;;;8.28;100.00
48352;BME280;34163;49.314;6.752;2023-09-19T12:31:57;99517.28;;;8.27;100.00
48352;BME280;34163;49.314;6.752;2023-09-19T12:34:23;99518.09;;;8.29;100.00
48352;BME280;34163;49.314;6.752;2023-09-19T12:37:13;99503.13;;;8.30;100.00
48352;BME280;34163;49.314;6.752;2023-09-19T12:39:44;99505.59;;;8.34;100.00
48352;BME280;34163;49.314;6.752;2023-09-19T12:42:21;99506.56;;;8.32;100.00
48352;BME280;34163;49.314;6.752;2023-09-19T12:44:50;99500.31;;;8.34;100.00
48352;BME280;34163;49.314;6.752;2023-09-19T12:47:20;99498.53;;;8.35;100.00
48352;BME280;34163;49.314;6.752;2023-09-19T12:52:37;99509.78;;;8.40;100.00
48352;BME280;34163;49.314;6.752;2023-09-19T12:55:02;99502.75;;;8.39;100.00
48352;BME280;34163;49.314;6.752;2023-09-19T12:57:28;99503.75;;;8.36;100.00
48352;BME280;34163;49.314;6.752;2023-09-19T12:59:53;99496.56;;;8.40;100.00
48352;BME280;34163;49.314;6.752;2023-09-19T13:02:19;99502.69;;;8.41;100.00
48352;BME280;34163;49.314;6.752;2023-09-19T13:04:52;99493.03;;;8.41;100.00
48352;BME280;34163;49.314;6.752;2023-09-19T13:10:02;99490.28;;;8.44;100.00
48352;BME280;34163;49.314;6.752;2023-09-19T13:12:35;99488.50;;;8.45;100.00
48352;BME280;34163;49.314;6.752;2023-09-19T13:15:11;99477.88;;;8.46;100.00
48352;BME280;34163;49.314;6.752;2023-09-19T13:17:45;99479.69;;;8.46;100.00
48352;BME280;34163;49.314;6.752;2023-09-19T13:20:24;99477.75;;;8.49;100.00
48352;BME280;34163;49.314;6.752;2023-09-19T13:22:52;99481.31;;;8.48;100.00
48352;BME280;34163;49.314;6.752;2023-09-19T13:25:25;99468.06;;;8.50;100.00
48352;BME280;34163;49.314;6.752;2023-09-19T13:27:52;99483.84;;;8.51;100.00
48352;BME280;34163;49.314;6.752;2023-09-19T13:30:19;99468.78;;;8.53;100.00
48352;BME280;34163;49.314;6.752;2023-09-19T13:32:44;99467.03;;;8.54;100.00
48352;BME280;34163;49.314;6.752;2023-09-19T13:35:12;99465.25;;;8.54;100.00
48352;BME280;34163;49.314;6.752;2023-09-19T13:37:41;99462.59;;;8.54;100.00
48352;BME280;34163;49.314;6.752;2023-09-19T13:40:09;99464.16;;;8.60;100.00
48352;BME280;34163;49.314;6.752;2023-09-19T13:42:35;99455.28;;;8.61;100.00
48352;BME280;34163;49.314;6.752;2023-09-19T13:45:01;99464.88;;;8.64;100.00
48352;BME280;34163;49.314;6.752;2023-09-19T13:47:27;99462.34;;;8.61;100.00
48352;BME280;34163;49.314;6.752;2023-09-19T13:49:52;99458.81;;;8.62;100.00
48352;BME280;34163;49.314;6.752;2023-09-19T13:52:20;99456.28;;;8.59;100.00
48352;BME280;34163;49.314;6.752;2023-09-19T13:54:48;99454.69;;;8.54;100.00
48352;BME280;34163;49.314;6.752;2023-09-19T13:57:13;99449.28;;;8.58;100.00
48352;BME280;34163;49.314;6.752;2023-09-19T13:59:39;99441.16;;;8.62;100.00
48352;BME280;34163;49.314;6.752;2023-09-19T14:02:04;99436.78;;;8.61;100.00
48352;BME280;34163;49.314;6.752;2023-09-19T14:04:31;99444.72;;;8.61;100.00
48352;BME280;34163;49.314;6.752;2023-09-19T14:06:56;99438.53;;;8.62;100.00
48352;BME280;34163;49.314;6.752;2023-09-19T14:09:22;99434.03;;;8.64;100.00
48352;BME280;34163;49.314;6.752;2023-09-19T14:11:48;99440.91;;;8.68;100.00
48352;BME280;34163;49.314;6.752;2023-09-19T14:14:14;99438.34;;;8.67;100.00
48352;BME280;34163;49.314;6.752;2023-09-19T14:16:40;99444.59;;;8.64;100.00
48352;BME280;34163;49.314;6.752;2023-09-19T14:19:06;99442.69;;;8.68;100.00
48352;BME280;34163;49.314;6.752;2023-09-19T14:21:33;99443.50;;;8.70;100.00
48352;BME280;34163;49.314;6.752;2023-09-19T14:23:58;99439.91;;;7.79;100.00
48352;BME280;34163;49.314;6.752;2023-09-19T14:26:23;99439.50;;;7.16;100.00
48352;BME280;34163;49.314;6.752;2023-09-19T14:28:48;99438.66;;;6.89;100.00
48352;BME280;34163;49.314;6.752;2023-09-19T14:31:14;99440.00;;;6.76;100.00
48352;BME280;34163;49.314;6.752;2023-09-19T14:33:40;99438.72;;;6.61;100.00
48352;BME280;34163;49.314;6.752;2023-09-19T14:36:09;99432.72;;;6.55;100.00
48352;BME280;34163;49.314;6.752;2023-09-19T14:38:36;99439.91;;;6.50;100.00
48352;BME280;34163;49.314;6.752;2023-09-19T14:41:01;99426.91;;;6.46;100.00
48352;BME280;34163;49.314;6.752;2023-09-19T14:43:27;99443.66;;;6.43;100.00
48352;BME280;34163;49.314;6.752;2023-09-19T14:45:54;99432.63;;;6.32;100.00
48352;BME280;34163;49.314;6.752;2023-09-19T14:48:19;99429.19;;;6.28;100.00
48352;BME280;34163;49.314;6.752;2023-09-19T14:50:44;99433.97;;;6.15;100.00
48352;BME280;34163;49.314;6.752;2023-09-19T14:53:09;99424.94;;;6.24;100.00
48352;BME280;34163;49.314;6.752;2023-09-19T14:55:37;99425.94;;;6.20;100.00
48352;BME280;34163;49.314;6.752;2023-09-19T14:58:06;99426.91;;;6.17;100.00
48352;BME280;34163;49.314;6.752;2023-09-19T15:00:32;99430.50;;;6.15;100.00
48352;BME280;34163;49.314;6.752;2023-09-19T15:02:59;99432.94;;;6.21;100.00
48352;BME280;34163;49.314;6.752;2023-09-19T15:05:24;99432.97;;;6.20;100.00
48352;BME280;34163;49.314;6.752;2023-09-19T15:07:49;99426.25;;;6.09;100.00
48352;BME280;34163;49.314;6.752;2023-09-19T15:10:15;99428.13;;;6.06;100.00
48352;BME280;34163;49.314;6.752;2023-09-19T15:12:43;99433.56;;;5.99;100.00
48352;BME280;34163;49.314;6.752;2023-09-19T15:15:09;99422.25;;;5.97;100.00
48352;BME280;34163;49.314;6.752;2023-09-19T15:17:35;99434.25;;;6.06;100.00
48352;BME280;34163;49.314;6.752;2023-09-19T15:20:01;99414.34;;;5.97;100.00
48352;BME280;34163;49.314;6.752;2023-09-19T15:22:27;99419.66;;;5.94;100.00
48352;BME280;34163;49.314;6.752;2023-09-19T15:24:52;99423.41;;;5.87;100.00
48352;BME280;34163;49.314;6.752;2023-09-19T15:27:17;99422.59;;;5.83;100.00
48352;BME280;34163;49.314;6.752;2023-09-19T15:29:45;99423.41;;;5.87;100.00
48352;BME280;34163;49.314;6.752;2023-09-19T15:32:10;99425.19;;;5.85;100.00
48352;BME280;34163;49.314;6.752;2023-09-19T15:34:35;99425.38;;;5.79;100.00
48352;BME280;34163;49.314;6.752;2023-09-19T15:37:04;99425.50;;;5.74;100.00
48352;BME280;34163;49.314;6.752;2023-09-19T15:39:31;99416.84;;;5.71;100.00
48352;BME280;34163;49.314;6.752;2023-09-19T15:41:59;99414.19;;;5.72;100.00
48352;BME280;34163;49.314;6.752;2023-09-19T15:44:24;99409.81;;;5.73;100.00
48352;BME280;34163;49.314;6.752;2023-09-19T15:46:51;99411.59;;;5.71;100.00
48352;BME280;34163;49.314;6.752;2023-09-19T15:49:17;99407.34;;;5.67;100.00
48352;BME280;34163;49.314;6.752;2023-09-19T15:51:42;99410.88;;;5.66;100.00
48352;BME280;34163;49.314;6.752;2023-09-19T15:54:14;99404.88;;;5.60;100.00
48352;BME280;34163;49.314;6.752;2023-09-19T15:56:41;99398.50;;;5.69;100.00
48352;BME280;34163;49.314;6.752;2023-09-19T15:59:06;99394.13;;;5.70;100.00
48352;BME280;34163;49.314;6.752;2023-09-19T16:01:32;99400.41;;;5.64;100.00
48352;BME280;34163;49.314;6.752;2023-09-19T16:03:58;99401.38;;;5.60;100.00
48352;BME280;34163;49.314;6.752;2023-09-19T16:06:25;99401.53;;;5.55;100.00
48352;BME280;34163;49.314;6.752;2023-09-19T16:08:51;99401.50;;;5.57;100.00
48352;BME280;34163;49.314;6.752;2023-09-19T16:11:17;99403.16;;;5.59;100.00
48352;BME280;34163;49.314;6.752;2023-09-19T16:13:43;99398.78;;;5.58;100.00
48352;BME280;34163;49.314;6.752;2023-09-19T16:16:10;99400.59;;;5.56;100.00
48352;BME280;34163;49.314;6.752;2023-09-19T16:18:38;99409.59;;;5.49;100.00
48352;BME280;34163;49.314;6.752;2023-09-19T16:21:04;99418.28;;;5.51;100.00
48352;BME280;34163;49.314;6.752;2023-09-19T16:23:30;99406.59;;;5.61;100.00
48352;BME280;34163;49.314;6.752;2023-09-19T16:26:04;99400.94;;;5.44;100.00
48352;BME280;34163;49.314;6.752;2023-09-19T16:28:30;99405.09;;;5.53;100.00
48352;BME280;34163;49.314;6.752;2023-09-19T16:30:59;99408.09;;;5.39;100.00
48352;BME280;34163;49.314;6.752;2023-09-19T16:33:25;99409.13;;;5.35;100.00
48352;BME280;34163;49.314;6.752;2023-09-19T16:35:51;99407.16;;;5.41;100.00
48352;BME280;34163;49.314;6.752;2023-09-19T16:38:16;99408.06;;;5.40;100.00
48352;BME280;34163;49.314;6.752;2023-09-19T16:40:50;99407.97;;;5.43;100.00
48352;BME280;34163;49.314;6.752;2023-09-19T16:43:15;99407.97;;;5.43;100.00
48352;BME280;34163;49.314;6.752;2023-09-19T16:45:41;99413.31;;;5.40;100.00
48352;BME280;34163;49.314;6.752;2023-09-19T16:48:07;99408.38;;;5.61;100.00
48352;BME280;34163;49.314;6.752;2023-09-19T16:50:32;99413.59;;;6.22;100.00
48352;BME280;34163;49.314;6.752;2023-09-19T16:52:59;99420.63;;;6.50;100.00
48352;BME280;34163;49.314;6.752;2023-09-19T16:55:24;99419.13;;;6.69;100.00
48352;BME280;34163;49.314;6.752;2023-09-19T16:57:50;99424.75;;;6.85;100.00
48352;BME280;34163;49.314;6.752;2023-09-19T17:00:15;99417.28;;;6.98;100.00
48352;BME280;34163;49.314;6.752;2023-09-19T17:02:45;99424.94;;;7.06;100.00
48352;BME280;34163;49.314;6.752;2023-09-19T17:05:10;99426.38;;;7.15;100.00
48352;BME280;34163;49.314;6.752;2023-09-19T17:07:36;99428.19;;;7.39;100.00
48352;BME280;34163;49.314;6.752;2023-09-19T17:10:03;99433.59;;;7.60;100.00
48352;BME280;34163;49.314;6.752;2023-09-19T17:12:30;99427.13;;;7.43;100.00
48352;BME280;34163;49.314;6.752;2023-09-19T17:14:55;99434.97;;;7.45;100.00
48352;BME280;34163;49.314;6.752;2023-09-19T17:17:21;99428.97;;;7.41;100.00
48352;BME280;34163;49.314;6.752;2023-09-19T17:19:46;99435.03;;;7.43;100.00
48352;BME280;34163;49.314;6.752;2023-09-19T17:22:11;99441.03;;;7.49;100.00
48352;BME280;34163;49.314;6.752;2023-09-19T17:24:36;99435.75;;;7.49;100.00
48352;BME280;34163;49.314;6.752;2023-09-19T17:27:02;99439.19;;;7.51;100.00
48352;BME280;34163;49.314;6.752;2023-09-19T17:29:27;99442.47;;;7.57;100.00
48352;BME280;34163;49.314;6.752;2023-09-19T17:31:52;99440.72;;;7.58;100.00
48352;BME280;34163;49.314;6.752;2023-09-19T17:34:18;99450.16;;;7.63;100.00
48352;BME280;34163;49.314;6.752;2023-09-19T17:36:45;99443.94;;;7.66;100.00
48352;BME280;34163;49.314;6.752;2023-09-19T17:39:10;99451.63;;;7.72;100.00
48352;BME280;34163;49.314;6.752;2023-09-19T17:41:39;99446.44;;;7.69;100.00
48352;BME280;34163;49.314;6.752;2023-09-19T17:44:06;99447.13;;;7.74;100.00
48352;BME280;34163;49.314;6.752;2023-09-19T17:46:31;99447.97;;;7.75;100.00
48352;BME280;34163;49.314;6.752;2023-09-19T17:48:59;99444.38;;;7.77;100.00
48352;BME280;34163;49.314;6.752;2023-09-19T17:51:25;99448.63;;;7.81;100.00
48352;BME280;34163;49.314;6.752;2023-09-19T17:53:52;99445.19;;;7.79;100.00
48352;BME280;34163;49.314;6.752;2023-09-19T17:56:18;99454.00;;;7.78;100.00
48352;BME280;34163;49.314;6.752;2023-09-19T17:58:46;99451.25;;;7.81;100.00
48352;BME280;34163;49.314;6.752;2023-09-19T18:01:19;99460.91;;;7.82;100.00
48352;BME280;34163;49.314;6.752;2023-09-19T18:03:45;99456.41;;;7.85;100.00
48352;BME280;34163;49.314;6.752;2023-09-19T18:06:10;99465.03;;;7.90;100.00
48352;BME280;34163;49.314;6.752;2023-09-19T18:08:36;99458.84;;;7.91;100.00
48352;BME280;34163;49.314;6.752;2023-09-19T18:11:02;99467.69;;;7.90;100.00
48352;BME280;34163;49.314;6.752;2023-09-19T18:13:28;99476.50;;;7.89;100.00
48352;BME280;34163;49.314;6.752;2023-09-19T18:15:54;99473.75;;;7.92;100.00
48352;BME280;34163;49.314;6.752;2023-09-19T18:18:20;99470.19;;;7.93;100.00
48352;BME280;34163;49.314;6.752;2023-09-19T18:20:45;99476.19;;;7.98;100.00
48352;BME280;34163;49.314;6.752;2023-09-19T18:23:10;99472.59;;;7.99;100.00
48352;BME280;34163;49.314;6.752;2023-09-19T18:25:36;99473.47;;;7.99;100.00
48352;BME280;34163;49.314;6.752;2023-09-19T18:28:02;99470.53;;;8.07;100.00
48352;BME280;34163;49.314;6.752;2023-09-19T18:30:29;99470.59;;;8.06;100.00
48352;BME280;34163;49.314;6.752;2023-09-19T18:32:54;99474.91;;;8.08;100.00
48352;BME280;34163;49.314;6.752;2023-09-19T18:35:20;99477.53;;;8.08;100.00
48352;BME280;34163;49.314;6.752;2023-09-19T18:37:46;99477.31;;;8.14;100.00
48352;BME280;34163;49.314;6.752;2023-09-19T18:40:12;99488.72;;;8.15;100.00
48352;BME280;34163;49.314;6.752;2023-09-19T18:42:38;99482.81;;;8.08;100.00
48352;BME280;34163;49.314;6.752;2023-09-19T18:45:05;99486.97;;;8.15;100.00
48352;BME280;34163;49.314;6.752;2023-09-19T18:47:31;99482.41;;;8.19;100.00
48352;BME280;34163;49.314;6.752;2023-09-19T18:49:56;99475.94;;;8.04;100.00
48352;BME280;34163;49.314;6.752;2023-09-19T18:52:22;99476.72;;;7.32;100.00
48352;BME280;34163;49.314;6.752;2023-09-19T18:54:48;99464.84;;;6.94;100.00
48352;BME280;34163;49.314;6.752;2023-09-19T18:57:13;99475.31;;;6.68;100.00
48352;BME280;34163;49.314;6.752;2023-09-19T18:59:39;99468.59;;;6.60;100.00
48352;BME280;34163;49.314;6.752;2023-09-19T19:02:04;99471.63;;;6.46;100.00
48352;BME280;34163;49.314;6.752;2023-09-19T19:04:29;99480.59;;;6.40;100.00
48352;BME280;34163;49.314;6.752;2023-09-19T19:06:55;99471.09;;;6.34;100.00
48352;BME280;34163;49.314;6.752;2023-09-19T19:09:20;99472.31;;;6.24;100.00
48352;BME280;34163;49.314;6.752;2023-09-19T19:11:45;99469.94;;;6.15;100.00
48352;BME280;34163;49.314;6.752;2023-09-19T19:14:11;99475.13;;;6.18;100.00
48352;BME280;34163;49.314;6.752;2023-09-19T19:16:37;99476.84;;;6.19;100.00
48352;BME280;34163;49.314;6.752;2023-09-19T19:19:03;99477.22;;;6.07;100.00
48352;BME280;34163;49.314;6.752;2023-09-19T19:21:29;99475.38;;;6.09;100.00
48352;BME280;34163;49.314;6.752;2023-09-19T19:23:56;99480.59;;;6.10;100.00
48352;BME280;34163;49.314;6.752;2023-09-19T19:26:21;99478.75;;;6.14;100.00
48352;BME280;34163;49.314;6.752;2023-09-19T19:28:47;99478.19;;;6.03;100.00
48352;BME280;34163;49.314;6.752;2023-09-19T19:31:14;99477.63;;;5.91;100.00
48352;BME280;34163;49.314;6.752;2023-09-19T19:33:39;99474.00;;;5.95;100.00
48352;BME280;34163;49.314;6.752;2023-09-19T19:36:05;99474.09;;;5.92;100.00
48352;BME280;34163;49.314;6.752;2023-09-19T19:38:31;99469.63;;;5.94;100.00
48352;BME280;34163;49.314;6.752;2023-09-19T19:40:58;99469.94;;;5.83;100.00
48352;BME280;34163;49.314;6.752;2023-09-19T19:43:24;99471.50;;;5.91;100.00
48352;BME280;34163;49.314;6.752;2023-09-19T19:45:53;99475.03;;;5.90;100.00
48352;BME280;34163;49.314;6.752;2023-09-19T19:48:19;99474.44;;;5.80;100.00
48352;BME280;34163;49.314;6.752;2023-09-19T19:50:44;99468.19;;;5.84;100.00
48352;BME280;34163;49.314;6.752;2023-09-19T19:53:09;99474.34;;;5.83;100.00
48352;BME280;34163;49.314;6.752;2023-09-19T19:55:34;99477.94;;;5.79;100.00
48352;BME280;34163;49.314;6.752;2023-09-19T19:58:00;99477.88;;;5.82;100.00
48352;BME280;34163;49.314;6.752;2023-09-19T20:00:25;99471.06;;;5.75;100.00
48352;BME280;34163;49.314;6.752;2023-09-19T20:02:52;99471.94;;;5.75;100.00
48352;BME280;34163;49.314;6.752;2023-09-19T20:05:17;99482.56;;;5.71;100.00
48352;BME280;34163;49.314;6.752;2023-09-19T20:07:46;99483.56;;;5.67;100.00
48352;BME280;34163;49.314;6.752;2023-09-19T20:10:11;99483.56;;;5.67;100.00
48352;BME280;34163;49.314;6.752;2023-09-19T20:12:44;99483.56;;;5.67;100.00
48352;BME280;34163;49.314;6.752;2023-09-19T20:15:10;99481.75;;;5.69;100.00
48352;BME280;34163;49.314;6.752;2023-09-19T20:17:35;99478.56;;;5.57;100.00
48352;BME280;34163;49.314;6.752;2023-09-19T20:20:01;99485.53;;;5.58;100.00
48352;BME280;34163;49.314;6.752;2023-09-19T20:22:26;99489.00;;;5.60;100.00
48352;BME280;34163;49.314;6.752;2023-09-19T20:24:51;99492.59;;;5.56;100.00
48352;BME280;34163;49.314;6.752;2023-09-19T20:27:16;99483.09;;;5.52;100.00
48352;BME280;34163;49.314;6.752;2023-09-19T20:29:42;99478.56;;;5.57;100.00
48352;BME280;34163;49.314;6.752;2023-09-19T20:32:07;99471.63;;;5.55;100.00
48352;BME280;34163;49.314;6.752;2023-09-19T20:34:34;99474.31;;;5.52;100.00
48352;BME280;34163;49.314;6.752;2023-09-19T20:36:59;99475.31;;;5.48;100.00
48352;BME280;34163;49.314;6.752;2023-09-19T20:39:26;99468.47;;;5.42;100.00
48352;BME280;34163;49.314;6.752;2023-09-19T20:41:52;99471.91;;;5.44;100.00
48352;BME280;34163;49.314;6.752;2023-09-19T20:44:17;99475.38;;;5.46;100.00
48352;BME280;34163;49.314;6.752;2023-09-19T20:46:43;99471.00;;;5.45;100.00
48352;BME280;34163;49.314;6.752;2023-09-19T20:49:09;99465.78;;;5.43;100.00
48352;BME280;34163;49.314;6.752;2023-09-19T20:51:34;99469.38;;;5.41;100.00
48352;BME280;34163;49.314;6.752;2023-09-19T20:54:01;99472.94;;;5.38;100.00
48352;BME280;34163;49.314;6.752;2023-09-19T20:56:26;99476.47;;;5.37;100.00
48352;BME280;34163;49.314;6.752;2023-09-19T20:58:52;99471.91;;;5.44;100.00
48352;BME280;34163;49.314;6.752;2023-09-19T21:01:17;99466.00;;;5.36;100.00
48352;BME280;34163;49.314;6.752;2023-09-19T21:03:44;99466.09;;;5.31;100.00
48352;BME280;34163;49.314;6.752;2023-09-19T21:06:10;99475.75;;;5.31;100.00
48352;BME280;34163;49.314;6.752;2023-09-19T21:08:41;99466.06;;;5.33;100.00
48352;BME280;34163;49.314;6.752;2023-09-19T21:11:10;99467.06;;;5.28;100.00
48352;BME280;34163;49.314;6.752;2023-09-19T21:13:36;99461.66;;;5.35;100.00